sensor_id;sensor_type;location;lat;lon;timestamp;temperature;humidity
77247;SHT35;66279;42.820;23.374;2023-05-10T00:01:30;9.23;86.95
77247;SHT35;66279;42.820;23.374;2023-05-10T00:03:55;9.23;87.24
77247;SHT35;66279;42.820;23.374;2023-05-10T00:06:21;9.19;87.46
77247;SHT35;66279;42.820;23.374;2023-05-10T00:08:47;9.22;87.88
77247;SHT35;66279;42.820;23.374;2023-05-10T00:11:12;9.23;87.71
77247;SHT35;66279;42.820;23.374;2023-05-10T00:13:38;9.23;87.69
77247;SHT35;66279;42.820;23.374;2023-05-10T00:16:04;9.16;87.25
77247;SHT35;66279;42.820;23.374;2023-05-10T00:18:30;9.14;87.10
77247;SHT35;66279;42.820;23.374;2023-05-10T00:20:55;9.15;87.52
77247;SHT35;66279;42.820;23.374;2023-05-10T00:23:21;9.12;87.75
77247;SHT35;66279;42.820;23.374;2023-05-10T00:25:46;9.12;87.94
77247;SHT35;66279;42.820;23.374;2023-05-10T00:28:12;9.12;87.32
77247;SHT35;66279;42.820;23.374;2023-05-10T00:30:37;9.09;87.24
77247;SHT35;66279;42.820;23.374;2023-05-10T00:33:03;9.11;87.07
77247;SHT35;66279;42.820;23.374;2023-05-10T00:35:28;9.05;87.05
77247;SHT35;66279;42.820;23.374;2023-05-10T00:37:54;8.98;86.97
77247;SHT35;66279;42.820;23.374;2023-05-10T00:40:19;8.99;87.55
77247;SHT35;66279;42.820;23.374;2023-05-10T00:42:45;8.99;87.28
77247;SHT35;66279;42.820;23.374;2023-05-10T00:45:11;8.96;87.56
77247;SHT35;66279;42.820;23.374;2023-05-10T00:47:37;8.98;87.59
77247;SHT35;66279;42.820;23.374;2023-05-10T00:50:03;8.93;87.99
77247;SHT35;66279;42.820;23.374;2023-05-10T00:52:30;8.93;87.74
77247;SHT35;66279;42.820;23.374;2023-05-10T00:54:55;8.91;87.81
77247;SHT35;66279;42.820;23.374;2023-05-10T00:57:22;8.92;88.16
77247;SHT35;66279;42.820;23.374;2023-05-10T00:59:48;8.89;87.92
77247;SHT35;66279;42.820;23.374;2023-05-10T01:02:14;8.89;87.73
77247;SHT35;66279;42.820;23.374;2023-05-10T01:04:39;8.88;88.18
77247;SHT35;66279;42.820;23.374;2023-05-10T01:07:05;8.85;88.28
77247;SHT35;66279;42.820;23.374;2023-05-10T01:09:31;8.85;88.11
77247;SHT35;66279;42.820;23.374;2023-05-10T01:11:59;8.85;88.28
77247;SHT35;66279;42.820;23.374;2023-05-10T01:14:25;8.82;88.58
77247;SHT35;66279;42.820;23.374;2023-05-10T01:16:52;8.84;88.29
77247;SHT35;66279;42.820;23.374;2023-05-10T01:19:29;8.86;88.89
77247;SHT35;66279;42.820;23.374;2023-05-10T01:30:44;8.92;88.81
77247;SHT35;66279;42.820;23.374;2023-05-10T01:33:35;8.86;88.33
77247;SHT35;66279;42.820;23.374;2023-05-10T01:36:09;8.91;88.39
77247;SHT35;66279;42.820;23.374;2023-05-10T01:38:47;8.91;88.65
77247;SHT35;66279;42.820;23.374;2023-05-10T01:41:27;8.89;88.42
77247;SHT35;66279;42.820;23.374;2023-05-10T01:44:20;8.89;88.32
77247;SHT35;66279;42.820;23.374;2023-05-10T01:46:53;8.89;88.61
77247;SHT35;66279;42.820;23.374;2023-05-10T01:49:26;8.85;89.26
77247;SHT35;66279;42.820;23.374;2023-05-10T01:51:54;8.86;89.20
77247;SHT35;66279;42.820;23.374;2023-05-10T01:54:22;8.86;88.49
77247;SHT35;66279;42.820;23.374;2023-05-10T01:56:52;8.86;88.59
77247;SHT35;66279;42.820;23.374;2023-05-10T01:59:21;8.82;88.66
77247;SHT35;66279;42.820;23.374;2023-05-10T02:01:48;8.78;88.91
77247;SHT35;66279;42.820;23.374;2023-05-10T02:04:16;8.78;89.47
77247;SHT35;66279;42.820;23.374;2023-05-10T02:06:43;8.82;89.14
77247;SHT35;66279;42.820;23.374;2023-05-10T02:09:11;8.79;89.06
77247;SHT35;66279;42.820;23.374;2023-05-10T02:11:39;8.77;88.87
77247;SHT35;66279;42.820;23.374;2023-05-10T02:14:09;8.79;89.34
77247;SHT35;66279;42.820;23.374;2023-05-10T02:16:35;8.77;89.47
77247;SHT35;66279;42.820;23.374;2023-05-10T02:19:02;8.79;89.24
77247;SHT35;66279;42.820;23.374;2023-05-10T02:21:29;8.77;89.51
77247;SHT35;66279;42.820;23.374;2023-05-10T02:23:55;8.74;89.62
77247;SHT35;66279;42.820;23.374;2023-05-10T02:26:22;8.71;88.85
77247;SHT35;66279;42.820;23.374;2023-05-10T02:28:49;8.60;88.03
77247;SHT35;66279;42.820;23.374;2023-05-10T02:31:15;8.47;88.36
77247;SHT35;66279;42.820;23.374;2023-05-10T02:33:43;8.41;88.21
77247;SHT35;66279;42.820;23.374;2023-05-10T02:36:10;8.33;87.72
77247;SHT35;66279;42.820;23.374;2023-05-10T02:38:36;8.25;87.22
77247;SHT35;66279;42.820;23.374;2023-05-10T02:41:02;8.19;87.17
77247;SHT35;66279;42.820;23.374;2023-05-10T02:43:32;8.14;87.16
77247;SHT35;66279;42.820;23.374;2023-05-10T02:45:58;8.10;86.43
77247;SHT35;66279;42.820;23.374;2023-05-10T02:48:24;7.93;86.16
77247;SHT35;66279;42.820;23.374;2023-05-10T02:50:52;7.86;84.91
77247;SHT35;66279;42.820;23.374;2023-05-10T02:53:23;7.79;85.78
77247;SHT35;66279;42.820;23.374;2023-05-10T02:55:52;7.74;85.41
77247;SHT35;66279;42.820;23.374;2023-05-10T02:58:18;7.72;85.23
77247;SHT35;66279;42.820;23.374;2023-05-10T03:00:47;7.68;85.73
77247;SHT35;66279;42.820;23.374;2023-05-10T03:03:13;7.66;85.75
77247;SHT35;66279;42.820;23.374;2023-05-10T03:05:38;7.59;86.46
77247;SHT35;66279;42.820;23.374;2023-05-10T03:08:04;7.64;86.82
77247;SHT35;66279;42.820;23.374;2023-05-10T03:10:32;7.61;87.46
77247;SHT35;66279;42.820;23.374;2023-05-10T03:18:07;7.62;86.44
77247;SHT35;66279;42.820;23.374;2023-05-10T03:20:41;7.62;87.14
77247;SHT35;66279;42.820;23.374;2023-05-10T03:23:27;7.62;86.24
77247;SHT35;66279;42.820;23.374;2023-05-10T03:25:52;7.55;86.46
77247;SHT35;66279;42.820;23.374;2023-05-10T03:28:19;7.57;86.22
77247;SHT35;66279;42.820;23.374;2023-05-10T03:30:46;7.61;86.45
77247;SHT35;66279;42.820;23.374;2023-05-10T03:33:11;7.68;86.53
77247;SHT35;66279;42.820;23.374;2023-05-10T03:35:38;7.69;87.58
77247;SHT35;66279;42.820;23.374;2023-05-10T03:38:04;7.74;86.76
77247;SHT35;66279;42.820;23.374;2023-05-10T03:40:29;7.75;84.69
77247;SHT35;66279;42.820;23.374;2023-05-10T03:43:00;7.75;84.41
77247;SHT35;66279;42.820;23.374;2023-05-10T03:45:25;7.72;83.28
77247;SHT35;66279;42.820;23.374;2023-05-10T03:47:51;7.65;82.37
77247;SHT35;66279;42.820;23.374;2023-05-10T03:50:17;7.65;82.29
77247;SHT35;66279;42.820;23.374;2023-05-10T03:52:43;7.61;82.75
77247;SHT35;66279;42.820;23.374;2023-05-10T03:55:09;7.61;81.81
77247;SHT35;66279;42.820;23.374;2023-05-10T03:57:35;7.52;81.45
77247;SHT35;66279;42.820;23.374;2023-05-10T04:00:01;7.48;81.49
77247;SHT35;66279;42.820;23.374;2023-05-10T04:02:26;7.45;81.81
77247;SHT35;66279;42.820;23.374;2023-05-10T04:04:52;7.43;81.83
77247;SHT35;66279;42.820;23.374;2023-05-10T04:07:17;7.40;82.44
77247;SHT35;66279;42.820;23.374;2023-05-10T04:09:43;7.41;82.61
77247;SHT35;66279;42.820;23.374;2023-05-10T04:12:08;7.37;81.12
77247;SHT35;66279;42.820;23.374;2023-05-10T04:14:35;7.41;82.52
77247;SHT35;66279;42.820;23.374;2023-05-10T04:17:00;7.41;82.64
77247;SHT35;66279;42.820;23.374;2023-05-10T04:19:29;7.40;82.16
77247;SHT35;66279;42.820;23.374;2023-05-10T04:21:55;7.37;81.80
77247;SHT35;66279;42.820;23.374;2023-05-10T04:24:21;7.40;81.92
77247;SHT35;66279;42.820;23.374;2023-05-10T04:26:46;7.41;82.20
77247;SHT35;66279;42.820;23.374;2023-05-10T04:29:12;7.47;81.89
77247;SHT35;66279;42.820;23.374;2023-05-10T04:31:37;7.47;81.41
77247;SHT35;66279;42.820;23.374;2023-05-10T04:34:03;7.48;81.42
77247;SHT35;66279;42.820;23.374;2023-05-10T04:36:29;7.54;81.47
77247;SHT35;66279;42.820;23.374;2023-05-10T04:38:55;7.57;81.93
77247;SHT35;66279;42.820;23.374;2023-05-10T04:41:21;7.58;82.02
77247;SHT35;66279;42.820;23.374;2023-05-10T04:43:46;7.64;79.68
77247;SHT35;66279;42.820;23.374;2023-05-10T04:46:14;7.72;80.74
77247;SHT35;66279;42.820;23.374;2023-05-10T04:48:39;7.72;79.78
77247;SHT35;66279;42.820;23.374;2023-05-10T04:51:05;7.76;80.97
77247;SHT35;66279;42.820;23.374;2023-05-10T04:53:32;7.82;80.29
77247;SHT35;66279;42.820;23.374;2023-05-10T04:55:57;7.82;79.78
77247;SHT35;66279;42.820;23.374;2023-05-10T04:58:23;7.83;79.69
77247;SHT35;66279;42.820;23.374;2023-05-10T05:00:49;7.83;80.56
77247;SHT35;66279;42.820;23.374;2023-05-10T05:03:14;7.93;81.36
77247;SHT35;66279;42.820;23.374;2023-05-10T05:05:40;8.02;80.54
77247;SHT35;66279;42.820;23.374;2023-05-10T05:08:05;8.06;79.78
77247;SHT35;66279;42.820;23.374;2023-05-10T05:10:31;8.12;79.82
77247;SHT35;66279;42.820;23.374;2023-05-10T05:12:56;8.13;78.88
77247;SHT35;66279;42.820;23.374;2023-05-10T05:15:22;8.10;77.40
77247;SHT35;66279;42.820;23.374;2023-05-10T05:17:47;8.06;78.38
77247;SHT35;66279;42.820;23.374;2023-05-10T05:20:13;8.05;77.19
77247;SHT35;66279;42.820;23.374;2023-05-10T05:22:38;8.00;77.79
77247;SHT35;66279;42.820;23.374;2023-05-10T05:25:04;8.03;77.59
77247;SHT35;66279;42.820;23.374;2023-05-10T05:27:31;8.10;77.27
77247;SHT35;66279;42.820;23.374;2023-05-10T05:29:57;8.14;77.81
77247;SHT35;66279;42.820;23.374;2023-05-10T05:32:23;8.20;77.66
77247;SHT35;66279;42.820;23.374;2023-05-10T05:34:49;8.23;77.27
77247;SHT35;66279;42.820;23.374;2023-05-10T05:37:16;8.27;77.18
77247;SHT35;66279;42.820;23.374;2023-05-10T05:39:42;8.30;77.57
77247;SHT35;66279;42.820;23.374;2023-05-10T05:42:09;8.43;78.52
77247;SHT35;66279;42.820;23.374;2023-05-10T05:44:34;8.44;76.68
77247;SHT35;66279;42.820;23.374;2023-05-10T05:47:00;8.47;76.45
77247;SHT35;66279;42.820;23.374;2023-05-10T05:49:26;8.41;74.98
77247;SHT35;66279;42.820;23.374;2023-05-10T05:51:51;8.41;75.57
77247;SHT35;66279;42.820;23.374;2023-05-10T05:54:17;8.46;76.86
77247;SHT35;66279;42.820;23.374;2023-05-10T05:56:42;8.37;75.66
77247;SHT35;66279;42.820;23.374;2023-05-10T05:59:10;8.41;76.44
77247;SHT35;66279;42.820;23.374;2023-05-10T06:01:35;8.40;75.97
77247;SHT35;66279;42.820;23.374;2023-05-10T06:04:01;8.43;76.57
77247;SHT35;66279;42.820;23.374;2023-05-10T06:06:26;8.46;76.61
77247;SHT35;66279;42.820;23.374;2023-05-10T06:08:52;8.48;77.72
77247;SHT35;66279;42.820;23.374;2023-05-10T06:11:18;8.48;76.99
77247;SHT35;66279;42.820;23.374;2023-05-10T06:13:44;8.55;76.41
77247;SHT35;66279;42.820;23.374;2023-05-10T06:16:09;8.58;76.44
77247;SHT35;66279;42.820;23.374;2023-05-10T06:18:35;8.58;75.63
77247;SHT35;66279;42.820;23.374;2023-05-10T06:21:01;8.64;76.34
77247;SHT35;66279;42.820;23.374;2023-05-10T06:23:26;8.67;74.58
77247;SHT35;66279;42.820;23.374;2023-05-10T06:25:52;8.60;73.10
77247;SHT35;66279;42.820;23.374;2023-05-10T06:28:18;8.61;73.91
77247;SHT35;66279;42.820;23.374;2023-05-10T06:30:43;8.60;72.60
77247;SHT35;66279;42.820;23.374;2023-05-10T06:33:12;8.67;72.45
77247;SHT35;66279;42.820;23.374;2023-05-10T06:35:37;8.68;70.70
77247;SHT35;66279;42.820;23.374;2023-05-10T06:38:04;8.67;70.36
77247;SHT35;66279;42.820;23.374;2023-05-10T06:40:29;8.72;69.58
77247;SHT35;66279;42.820;23.374;2023-05-10T06:42:55;8.88;72.39
77247;SHT35;66279;42.820;23.374;2023-05-10T06:45:20;8.92;71.75
77247;SHT35;66279;42.820;23.374;2023-05-10T06:47:46;8.99;73.14
77247;SHT35;66279;42.820;23.374;2023-05-10T06:50:12;8.99;73.36
77247;SHT35;66279;42.820;23.374;2023-05-10T06:52:37;9.05;71.73
77247;SHT35;66279;42.820;23.374;2023-05-10T06:55:04;9.02;73.26
77247;SHT35;66279;42.820;23.374;2023-05-10T06:57:30;9.18;73.35
77247;SHT35;66279;42.820;23.374;2023-05-10T06:59:56;9.23;72.52
77247;SHT35;66279;42.820;23.374;2023-05-10T07:02:22;9.26;71.84
77247;SHT35;66279;42.820;23.374;2023-05-10T07:04:48;9.26;72.17
77247;SHT35;66279;42.820;23.374;2023-05-10T07:07:14;9.30;72.54
77247;SHT35;66279;42.820;23.374;2023-05-10T07:09:40;9.39;72.24
77247;SHT35;66279;42.820;23.374;2023-05-10T07:12:05;9.39;72.59
77247;SHT35;66279;42.820;23.374;2023-05-10T07:14:31;9.42;71.58
77247;SHT35;66279;42.820;23.374;2023-05-10T07:16:56;9.44;71.39
77247;SHT35;66279;42.820;23.374;2023-05-10T07:19:22;9.42;71.67
77247;SHT35;66279;42.820;23.374;2023-05-10T07:21:47;9.37;69.62
77247;SHT35;66279;42.820;23.374;2023-05-10T07:24:13;9.40;71.52
77247;SHT35;66279;42.820;23.374;2023-05-10T07:26:39;9.47;70.29
77247;SHT35;66279;42.820;23.374;2023-05-10T07:29:04;9.50;70.99
77247;SHT35;66279;42.820;23.374;2023-05-10T07:31:30;9.57;70.39
77247;SHT35;66279;42.820;23.374;2023-05-10T07:33:55;9.58;70.36
77247;SHT35;66279;42.820;23.374;2023-05-10T07:36:21;9.67;71.43
77247;SHT35;66279;42.820;23.374;2023-05-10T07:38:47;9.71;69.05
77247;SHT35;66279;42.820;23.374;2023-05-10T07:41:12;9.81;70.72
77247;SHT35;66279;42.820;23.374;2023-05-10T07:43:38;9.85;68.94
77247;SHT35;66279;42.820;23.374;2023-05-10T07:46:04;9.77;67.16
77247;SHT35;66279;42.820;23.374;2023-05-10T07:48:30;9.77;67.59
77247;SHT35;66279;42.820;23.374;2023-05-10T07:50:56;9.94;68.22
77247;SHT35;66279;42.820;23.374;2023-05-10T07:53:22;10.14;67.57
77247;SHT35;66279;42.820;23.374;2023-05-10T07:55:51;10.22;67.19
77247;SHT35;66279;42.820;23.374;2023-05-10T07:58:19;10.19;66.52
77247;SHT35;66279;42.820;23.374;2023-05-10T08:00:45;10.29;68.44
77247;SHT35;66279;42.820;23.374;2023-05-10T08:03:10;10.39;67.79
77247;SHT35;66279;42.820;23.374;2023-05-10T08:05:36;10.53;67.70
77247;SHT35;66279;42.820;23.374;2023-05-10T08:08:01;10.59;65.37
77247;SHT35;66279;42.820;23.374;2023-05-10T08:10:27;10.74;67.49
77247;SHT35;66279;42.820;23.374;2023-05-10T08:12:52;10.92;65.81
77247;SHT35;66279;42.820;23.374;2023-05-10T08:15:18;11.03;64.47
77247;SHT35;66279;42.820;23.374;2023-05-10T08:17:44;10.90;66.31
77247;SHT35;66279;42.820;23.374;2023-05-10T08:20:09;10.97;65.78
77247;SHT35;66279;42.820;23.374;2023-05-10T08:22:35;11.10;66.63
77247;SHT35;66279;42.820;23.374;2023-05-10T08:25:01;10.97;63.90
77247;SHT35;66279;42.820;23.374;2023-05-10T08:27:27;11.00;63.93
77247;SHT35;66279;42.820;23.374;2023-05-10T08:29:52;11.13;64.67
77247;SHT35;66279;42.820;23.374;2023-05-10T08:32:17;11.34;63.68
77247;SHT35;66279;42.820;23.374;2023-05-10T08:34:43;11.61;65.28
77247;SHT35;66279;42.820;23.374;2023-05-10T08:37:09;11.90;63.45
77247;SHT35;66279;42.820;23.374;2023-05-10T08:39:35;11.79;60.29
77247;SHT35;66279;42.820;23.374;2023-05-10T08:42:03;11.78;62.14
77247;SHT35;66279;42.820;23.374;2023-05-10T08:44:31;11.82;62.47
77247;SHT35;66279;42.820;23.374;2023-05-10T08:46:59;11.73;62.15
77247;SHT35;66279;42.820;23.374;2023-05-10T08:49:30;11.61;63.53
77247;SHT35;66279;42.820;23.374;2023-05-10T08:51:56;11.93;65.09
77247;SHT35;66279;42.820;23.374;2023-05-10T08:54:22;12.02;63.09
77247;SHT35;66279;42.820;23.374;2023-05-10T08:56:48;11.78;62.10
77247;SHT35;66279;42.820;23.374;2023-05-10T08:59:14;11.54;61.80
77247;SHT35;66279;42.820;23.374;2023-05-10T09:01:41;11.50;63.70
77247;SHT35;66279;42.820;23.374;2023-05-10T09:04:08;11.59;62.33
77247;SHT35;66279;42.820;23.374;2023-05-10T09:06:33;11.85;62.30
77247;SHT35;66279;42.820;23.374;2023-05-10T09:08:59;12.03;63.03
77247;SHT35;66279;42.820;23.374;2023-05-10T09:11:25;12.09;61.93
77247;SHT35;66279;42.820;23.374;2023-05-10T09:13:52;11.87;61.27
77247;SHT35;66279;42.820;23.374;2023-05-10T09:16:17;11.87;61.58
77247;SHT35;66279;42.820;23.374;2023-05-10T09:18:43;11.73;60.58
77247;SHT35;66279;42.820;23.374;2023-05-10T09:21:09;11.54;60.54
77247;SHT35;66279;42.820;23.374;2023-05-10T09:23:35;11.54;60.94
77247;SHT35;66279;42.820;23.374;2023-05-10T09:26:07;11.46;61.32
77247;SHT35;66279;42.820;23.374;2023-05-10T09:28:53;11.66;62.18
77247;SHT35;66279;42.820;23.374;2023-05-10T09:31:19;11.82;62.06
77247;SHT35;66279;42.820;23.374;2023-05-10T09:33:46;11.87;61.85
77247;SHT35;66279;42.820;23.374;2023-05-10T09:36:13;11.79;61.64
77247;SHT35;66279;42.820;23.374;2023-05-10T09:38:49;11.66;61.48
77247;SHT35;66279;42.820;23.374;2023-05-10T09:41:22;11.69;62.32
77247;SHT35;66279;42.820;23.374;2023-05-10T09:43:48;11.73;62.89
77247;SHT35;66279;42.820;23.374;2023-05-10T09:46:17;11.89;63.21
77247;SHT35;66279;42.820;23.374;2023-05-10T09:48:47;11.96;61.89
77247;SHT35;66279;42.820;23.374;2023-05-10T09:51:23;11.96;60.12
77247;SHT35;66279;42.820;23.374;2023-05-10T09:54:11;11.89;60.86
77247;SHT35;66279;42.820;23.374;2023-05-10T09:56:38;11.90;60.65
77247;SHT35;66279;42.820;23.374;2023-05-10T09:59:07;11.87;60.71
77247;SHT35;66279;42.820;23.374;2023-05-10T10:01:33;12.00;61.24
77247;SHT35;66279;42.820;23.374;2023-05-10T10:04:02;12.13;59.79
77247;SHT35;66279;42.820;23.374;2023-05-10T10:06:29;12.27;59.97
77247;SHT35;66279;42.820;23.374;2023-05-10T10:08:55;12.17;59.63
77247;SHT35;66279;42.820;23.374;2023-05-10T10:11:26;12.36;60.76
77247;SHT35;66279;42.820;23.374;2023-05-10T10:13:51;12.40;60.33
77247;SHT35;66279;42.820;23.374;2023-05-10T10:16:17;12.48;60.10
77247;SHT35;66279;42.820;23.374;2023-05-10T10:18:43;12.50;60.45
77247;SHT35;66279;42.820;23.374;2023-05-10T10:21:08;12.52;59.92
77247;SHT35;66279;42.820;23.374;2023-05-10T10:23:35;12.58;60.32
77247;SHT35;66279;42.820;23.374;2023-05-10T10:26:02;12.36;59.46
77247;SHT35;66279;42.820;23.374;2023-05-10T10:28:51;12.58;59.86
77247;SHT35;66279;42.820;23.374;2023-05-10T10:31:27;12.54;59.35
77247;SHT35;66279;42.820;23.374;2023-05-10T10:34:06;12.51;59.10
77247;SHT35;66279;42.820;23.374;2023-05-10T10:36:44;12.57;59.51
77247;SHT35;66279;42.820;23.374;2023-05-10T10:39:10;12.79;59.43
77247;SHT35;66279;42.820;23.374;2023-05-10T10:50:02;12.93;60.17
77247;SHT35;66279;42.820;23.374;2023-05-10T10:55:12;12.81;59.39
77247;SHT35;66279;42.820;23.374;2023-05-10T11:00:26;12.82;59.24
77247;SHT35;66279;42.820;23.374;2023-05-10T11:03:08;12.77;59.25
77247;SHT35;66279;42.820;23.374;2023-05-10T11:05:49;12.72;59.00
77247;SHT35;66279;42.820;23.374;2023-05-10T11:08:26;12.68;58.65
77247;SHT35;66279;42.820;23.374;2023-05-10T11:13:44;12.75;60.02
77247;SHT35;66279;42.820;23.374;2023-05-10T11:16:17;12.87;60.13
77247;SHT35;66279;42.820;23.374;2023-05-10T11:18:56;12.78;57.38
77247;SHT35;66279;42.820;23.374;2023-05-10T11:21:23;12.89;58.94
77247;SHT35;66279;42.820;23.374;2023-05-10T11:23:51;12.77;58.22
77247;SHT35;66279;42.820;23.374;2023-05-10T11:26:17;12.92;59.42
77247;SHT35;66279;42.820;23.374;2023-05-10T11:28:44;12.85;59.14
77247;SHT35;66279;42.820;23.374;2023-05-10T11:31:10;12.78;60.40
77247;SHT35;66279;42.820;23.374;2023-05-10T11:33:49;12.77;59.55
77247;SHT35;66279;42.820;23.374;2023-05-10T11:36:17;12.71;58.63
77247;SHT35;66279;42.820;23.374;2023-05-10T11:38:43;12.61;58.66
77247;SHT35;66279;42.820;23.374;2023-05-10T11:41:10;12.64;58.93
77247;SHT35;66279;42.820;23.374;2023-05-10T11:43:37;12.91;59.50
77247;SHT35;66279;42.820;23.374;2023-05-10T11:46:05;13.02;60.40
77247;SHT35;66279;42.820;23.374;2023-05-10T11:48:31;13.03;58.88
77247;SHT35;66279;42.820;23.374;2023-05-10T11:50:57;13.08;59.56
77247;SHT35;66279;42.820;23.374;2023-05-10T11:53:25;13.02;58.30
77247;SHT35;66279;42.820;23.374;2023-05-10T11:55:51;13.09;58.72
77247;SHT35;66279;42.820;23.374;2023-05-10T11:58:18;13.09;57.86
77247;SHT35;66279;42.820;23.374;2023-05-10T12:00:44;13.18;59.11
77247;SHT35;66279;42.820;23.374;2023-05-10T12:03:11;12.99;59.60
77247;SHT35;66279;42.820;23.374;2023-05-10T12:05:37;13.16;60.37
77247;SHT35;66279;42.820;23.374;2023-05-10T12:08:16;13.32;60.30
77247;SHT35;66279;42.820;23.374;2023-05-10T12:10:45;13.29;58.84
77247;SHT35;66279;42.820;23.374;2023-05-10T12:13:11;13.33;58.38
77247;SHT35;66279;42.820;23.374;2023-05-10T12:15:38;13.33;58.00
77247;SHT35;66279;42.820;23.374;2023-05-10T12:18:03;13.40;59.28
77247;SHT35;66279;42.820;23.374;2023-05-10T12:20:30;13.46;58.98
77247;SHT35;66279;42.820;23.374;2023-05-10T12:22:58;13.60;58.16
77247;SHT35;66279;42.820;23.374;2023-05-10T12:25:33;13.59;58.73
77247;SHT35;66279;42.820;23.374;2023-05-10T12:28:02;13.59;58.20
77247;SHT35;66279;42.820;23.374;2023-05-10T12:30:30;13.64;58.92
77247;SHT35;66279;42.820;23.374;2023-05-10T12:33:10;13.71;58.38
77247;SHT35;66279;42.820;23.374;2023-05-10T12:35:49;13.97;58.05
77247;SHT35;66279;42.820;23.374;2023-05-10T12:38:44;14.01;57.88
77247;SHT35;66279;42.820;23.374;2023-05-10T12:41:11;13.95;58.59
77247;SHT35;66279;42.820;23.374;2023-05-10T12:43:38;13.85;58.77
77247;SHT35;66279;42.820;23.374;2023-05-10T12:46:14;13.74;58.95
77247;SHT35;66279;42.820;23.374;2023-05-10T12:48:42;13.77;58.14
77247;SHT35;66279;42.820;23.374;2023-05-10T12:51:08;13.80;59.10
77247;SHT35;66279;42.820;23.374;2023-05-10T12:53:47;13.73;58.26
77247;SHT35;66279;42.820;23.374;2023-05-10T12:56:13;13.68;60.32
77247;SHT35;66279;42.820;23.374;2023-05-10T12:58:38;13.78;58.65
77247;SHT35;66279;42.820;23.374;2023-05-10T13:01:05;13.70;58.69
77247;SHT35;66279;42.820;23.374;2023-05-10T13:03:30;13.60;59.26
77247;SHT35;66279;42.820;23.374;2023-05-10T13:05:56;13.56;58.28
77247;SHT35;66279;42.820;23.374;2023-05-10T13:08:21;13.54;59.50
77247;SHT35;66279;42.820;23.374;2023-05-10T13:10:47;13.47;59.36
77247;SHT35;66279;42.820;23.374;2023-05-10T13:13:12;13.51;59.87
77247;SHT35;66279;42.820;23.374;2023-05-10T13:15:38;13.51;60.00
77247;SHT35;66279;42.820;23.374;2023-05-10T13:18:04;13.54;60.91
77247;SHT35;66279;42.820;23.374;2023-05-10T13:20:30;13.43;59.77
77247;SHT35;66279;42.820;23.374;2023-05-10T13:22:55;13.33;58.99
77247;SHT35;66279;42.820;23.374;2023-05-10T13:25:21;13.15;60.29
77247;SHT35;66279;42.820;23.374;2023-05-10T13:27:46;13.18;60.48
77247;SHT35;66279;42.820;23.374;2023-05-10T13:30:12;13.15;60.43
77247;SHT35;66279;42.820;23.374;2023-05-10T13:32:38;13.19;61.69
77247;SHT35;66279;42.820;23.374;2023-05-10T13:35:04;13.40;61.65
77247;SHT35;66279;42.820;23.374;2023-05-10T13:37:30;13.36;60.67
77247;SHT35;66279;42.820;23.374;2023-05-10T13:39:56;13.35;62.03
77247;SHT35;66279;42.820;23.374;2023-05-10T13:42:22;13.47;61.47
77247;SHT35;66279;42.820;23.374;2023-05-10T13:44:49;13.43;61.36
77247;SHT35;66279;42.820;23.374;2023-05-10T13:47:14;13.40;61.53
77247;SHT35;66279;42.820;23.374;2023-05-10T13:49:40;13.19;61.88
77247;SHT35;66279;42.820;23.374;2023-05-10T13:52:05;13.18;61.65
77247;SHT35;66279;42.820;23.374;2023-05-10T13:54:33;13.12;61.98
77247;SHT35;66279;42.820;23.374;2023-05-10T13:56:59;13.10;61.42
77247;SHT35;66279;42.820;23.374;2023-05-10T13:59:25;13.20;62.20
77247;SHT35;66279;42.820;23.374;2023-05-10T14:01:50;13.27;61.65
77247;SHT35;66279;42.820;23.374;2023-05-10T14:04:16;13.15;62.49
77247;SHT35;66279;42.820;23.374;2023-05-10T14:06:42;13.13;62.05
77247;SHT35;66279;42.820;23.374;2023-05-10T14:09:08;13.06;62.54
77247;SHT35;66279;42.820;23.374;2023-05-10T14:11:33;13.13;62.42
77247;SHT35;66279;42.820;23.374;2023-05-10T14:13:59;13.26;61.75
77247;SHT35;66279;42.820;23.374;2023-05-10T14:16:25;13.19;62.45
77247;SHT35;66279;42.820;23.374;2023-05-10T14:18:51;13.10;62.55
77247;SHT35;66279;42.820;23.374;2023-05-10T14:21:16;13.16;62.59
77247;SHT35;66279;42.820;23.374;2023-05-10T14:23:42;13.23;62.39
77247;SHT35;66279;42.820;23.374;2023-05-10T14:26:08;13.09;63.00
77247;SHT35;66279;42.820;23.374;2023-05-10T14:28:33;13.05;63.13
77247;SHT35;66279;42.820;23.374;2023-05-10T14:30:59;13.05;63.19
77247;SHT35;66279;42.820;23.374;2023-05-10T14:33:24;13.12;63.57
77247;SHT35;66279;42.820;23.374;2023-05-10T14:35:50;13.15;63.37
77247;SHT35;66279;42.820;23.374;2023-05-10T14:38:16;13.20;63.65
77247;SHT35;66279;42.820;23.374;2023-05-10T14:40:42;13.24;63.03
77247;SHT35;66279;42.820;23.374;2023-05-10T14:43:08;13.01;63.03
77247;SHT35;66279;42.820;23.374;2023-05-10T14:45:34;12.95;63.30
77247;SHT35;66279;42.820;23.374;2023-05-10T14:47:59;12.93;63.79
77247;SHT35;66279;42.820;23.374;2023-05-10T14:50:25;12.79;63.86
77247;SHT35;66279;42.820;23.374;2023-05-10T14:56:03;12.67;63.51
77247;SHT35;66279;42.820;23.374;2023-05-10T14:58:29;12.68;63.50
77247;SHT35;66279;42.820;23.374;2023-05-10T15:00:55;12.67;63.78
77247;SHT35;66279;42.820;23.374;2023-05-10T15:03:21;12.65;63.99
77247;SHT35;66279;42.820;23.374;2023-05-10T15:05:47;12.77;64.15
77247;SHT35;66279;42.820;23.374;2023-05-10T15:08:13;12.71;64.24
77247;SHT35;66279;42.820;23.374;2023-05-10T15:10:39;12.67;64.65
77247;SHT35;66279;42.820;23.374;2023-05-10T15:13:04;12.64;64.87
77247;SHT35;66279;42.820;23.374;2023-05-10T15:15:30;12.58;64.60
77247;SHT35;66279;42.820;23.374;2023-05-10T15:17:56;12.52;65.71
77247;SHT35;66279;42.820;23.374;2023-05-10T15:20:21;12.57;64.99
77247;SHT35;66279;42.820;23.374;2023-05-10T15:22:47;12.54;65.44
77247;SHT35;66279;42.820;23.374;2023-05-10T15:25:13;12.38;65.96
77247;SHT35;66279;42.820;23.374;2023-05-10T15:27:38;12.41;65.73
77247;SHT35;66279;42.820;23.374;2023-05-10T15:30:04;12.40;66.14
77247;SHT35;66279;42.820;23.374;2023-05-10T15:32:30;12.31;66.35
77247;SHT35;66279;42.820;23.374;2023-05-10T15:34:55;12.37;66.04
77247;SHT35;66279;42.820;23.374;2023-05-10T15:37:21;12.36;66.18
77247;SHT35;66279;42.820;23.374;2023-05-10T15:39:48;12.31;66.17
77247;SHT35;66279;42.820;23.374;2023-05-10T15:42:14;12.33;66.29
77247;SHT35;66279;42.820;23.374;2023-05-10T15:44:39;12.27;66.69
77247;SHT35;66279;42.820;23.374;2023-05-10T15:47:05;12.19;66.63
77247;SHT35;66279;42.820;23.374;2023-05-10T15:49:31;12.21;67.18
77247;SHT35;66279;42.820;23.374;2023-05-10T15:51:58;12.16;66.71
77247;SHT35;66279;42.820;23.374;2023-05-10T15:54:23;12.21;66.74
77247;SHT35;66279;42.820;23.374;2023-05-10T15:56:49;12.17;66.57